Time,TemperatureF,DewpointF,PressureIn,WindDirection,WindDirectionDegrees,WindSpeedMPH,WindSpeedGustMPH,Humidity,HourlyPrecipIn,Conditions,Clouds,dailyrainin,SoftwareType,DateUTC
2013-02-16 00:02:00,2.0,1.0,-100.00,WSW,255,6.0,7.0,96,0.00,,,0.00,,2013-02-16 06:02:00,
2013-02-16 00:11:00,2.0,1.0,-100.00,WSW,250,6.0,6.0,96,0.00,,,0.00,,2013-02-16 06:11:00,
2013-02-16 00:21:00,3.0,1.0,-100.00,WSW,250,7.0,7.0,96,0.00,,,0.00,,2013-02-16 06:21:00,
2013-02-16 00:32:00,3.0,1.0,-100.00,WSW,255,6.0,7.0,96,0.00,,,0.00,,2013-02-16 06:32:00,
2013-02-16 00:42:00,3.0,1.0,-100.00,WSW,255,6.0,7.0,96,0.00,,,0.00,,2013-02-16 06:42:00,
2013-02-16 00:52:00,3.0,1.0,-100.00,WSW,255,7.0,7.0,96,0.00,,,0.00,,2013-02-16 06:52:00,
2013-02-16 01:02:00,2.0,1.0,-100.00,WSW,255,7.0,8.0,96,0.00,,,0.00,,2013-02-16 07:02:00,
2013-02-16 01:11:00,2.0,1.0,-100.00,WSW,255,7.0,9.0,96,0.00,,,0.00,,2013-02-16 07:11:00,
2013-02-16 01:21:00,2.0,1.0,-100.00,West,260,9.0,10.0,96,0.00,,,0.00,,2013-02-16 07:21:00,
2013-02-16 01:32:00,1.0,0.0,-100.00,West,260,9.0,9.0,96,0.00,,,0.00,,2013-02-16 07:32:00,
2013-02-16 01:42:00,1.0,0.0,-100.00,West,260,8.0,9.0,96,0.00,,,0.00,,2013-02-16 07:42:00,
2013-02-16 01:52:00,1.0,0.0,-100.00,WSW,255,9.0,9.0,96,0.00,,,0.00,,2013-02-16 07:52:00,
2013-02-16 02:01:00,1.0,0.0,-100.00,WSW,255,11.0,12.0,96,0.00,,,0.00,,2013-02-16 08:01:00,
2013-02-16 02:11:00,2.0,1.0,-100.00,West,260,11.0,12.0,96,0.00,,,0.00,,2013-02-16 08:11:00,
2013-02-16 02:21:00,1.0,0.0,-100.00,West,260,9.0,11.0,96,0.00,,,0.00,,2013-02-16 08:21:00,
2013-02-16 02:31:00,2.0,1.0,-100.00,West,260,9.0,11.0,96,0.00,,,0.00,,2013-02-16 08:31:00,
2013-02-16 02:42:00,2.0,1.0,-100.00,West,265,6.0,10.0,96,0.00,,,0.00,,2013-02-16 08:42:00,
2013-02-16 02:52:00,1.0,0.0,-100.00,West,270,4.0,6.0,96,0.00,,,0.00,,2013-02-16 08:52:00,
2013-02-16 03:01:00,1.0,0.0,-100.00,West,270,4.0,5.0,95,0.00,,,0.00,,2013-02-16 09:01:00,
2013-02-16 03:11:00,1.0,0.0,-100.00,West,270,5.0,6.0,95,0.00,,,0.00,,2013-02-16 09:11:00,
2013-02-16 03:21:00,1.0,0.0,-100.00,West,280,4.0,5.0,95,0.00,,,0.00,,2013-02-16 09:21:00,
2013-02-16 03:32:00,1.0,0.0,-100.00,West,275,5.0,6.0,95,0.00,,,0.00,,2013-02-16 09:32:00,
2013-02-16 03:42:00,1.0,0.0,-100.00,West,270,5.0,6.0,95,0.00,,,0.00,,2013-02-16 09:42:00,
2013-02-16 03:51:00,0.0,0.0,-100.00,West,275,3.0,5.0,95,0.00,,,0.00,,2013-02-16 09:51:00,
2013-02-16 04:01:00,1.0,0.0,-100.00,WNW,295,3.0,4.0,95,0.00,,,0.00,,2013-02-16 10:01:00,
2013-02-16 04:11:00,5.0,3.0,-100.00,WNW,300,1.0,4.0,95,0.00,,,0.00,,2013-02-16 10:11:00,
2013-02-16 04:21:00,5.0,3.0,-100.00,WNW,285,0.0,2.0,95,0.00,,,0.00,,2013-02-16 10:21:00,
2013-02-16 04:31:00,5.0,3.0,-100.00,WNW,290,0.0,0.0,95,0.00,,,0.00,,2013-02-16 10:31:00,
2013-02-16 04:42:00,5.0,3.0,-100.00,West,265,0.0,0.0,96,0.00,,,0.00,,2013-02-16 10:42:00,
2013-02-16 04:51:00,4.0,3.0,-100.00,West,260,0.0,0.0,96,0.00,,,0.00,,2013-02-16 10:51:00,
2013-02-16 05:02:00,4.0,3.0,-100.00,WSW,250,0.0,0.0,96,0.00,,,0.00,,2013-02-16 11:02:00,
2013-02-16 05:11:00,4.0,3.0,-100.00,WSW,250,0.0,1.0,96,0.00,,,0.00,,2013-02-16 11:11:00,
2013-02-16 05:22:00,3.0,3.0,-100.00,SW,230,3.0,3.0,96,0.00,,,0.00,,2013-02-16 11:22:00,
2013-02-16 05:32:00,3.0,1.0,-100.00,SW,220,3.0,4.0,96,0.00,,,0.00,,2013-02-16 11:32:00,
2013-02-16 05:42:00,2.0,1.0,-100.00,SW,215,3.0,4.0,96,0.00,,,0.00,,2013-02-16 11:42:00,
2013-02-16 05:52:00,2.0,1.0,-100.00,SW,215,3.0,3.0,96,0.00,,,0.00,,2013-02-16 11:52:00,
2013-02-16 06:02:00,2.0,1.0,-100.00,SW,215,3.0,4.0,96,0.00,,,0.00,,2013-02-16 12:02:00,
2013-02-16 06:12:00,2.0,1.0,-100.00,SW,215,2.0,3.0,96,0.00,,,0.00,,2013-02-16 12:12:00,
2013-02-16 06:22:00,2.0,1.0,-100.00,SW,215,2.0,3.0,96,0.00,,,0.00,,2013-02-16 12:22:00,
2013-02-16 06:32:00,2.0,1.0,-100.00,SW,215,2.0,3.0,96,0.00,,,0.00,,2013-02-16 12:32:00,
2013-02-16 06:42:00,2.0,1.0,-100.00,SW,215,2.0,2.0,96,0.00,,,0.00,,2013-02-16 12:42:00,
2013-02-16 06:52:00,4.0,3.0,-100.00,SW,215,2.0,2.0,96,0.00,,,0.00,,2013-02-16 12:52:00,
2013-02-16 07:02:00,5.0,3.0,-100.00,SW,215,1.0,2.0,96,0.00,,,0.00,,2013-02-16 13:02:00,
2013-02-16 07:12:00,5.0,3.0,-100.00,SW,215,1.0,1.0,96,0.00,,,0.00,,2013-02-16 13:12:00,
2013-02-16 07:21:00,5.0,5.0,-100.00,SW,215,1.0,1.0,96,0.00,,,0.00,,2013-02-16 13:21:00,
2013-02-16 07:32:00,6.0,5.0,-100.00,SW,215,1.0,1.0,96,0.00,,,0.00,,2013-02-16 13:32:00,
2013-02-16 07:41:00,6.0,5.0,-100.00,SW,215,2.0,2.0,96,0.00,,,0.00,,2013-02-16 13:41:00,
2013-02-16 07:51:00,7.0,7.0,-100.00,SW,215,2.0,2.0,96,0.00,,,0.00,,2013-02-16 13:51:00,
2013-02-16 08:01:00,7.0,7.0,-100.00,SW,215,1.0,2.0,96,0.00,,,0.00,,2013-02-16 14:01:00,
2013-02-16 08:11:00,7.0,7.0,-100.00,SW,215,1.0,1.0,96,0.00,,,0.00,,2013-02-16 14:11:00,
2013-02-16 08:21:00,7.0,7.0,-100.00,SW,215,1.0,1.0,96,0.00,,,0.00,,2013-02-16 14:21:00,
2013-02-16 08:32:00,7.0,7.0,-100.00,SW,215,1.0,1.0,96,0.00,,,0.00,,2013-02-16 14:32:00,
2013-02-16 08:41:00,7.0,7.0,-100.00,SW,215,1.0,1.0,96,0.00,,,0.00,,2013-02-16 14:41:00,
2013-02-16 08:52:00,7.0,7.0,-100.00,SW,215,1.0,1.0,96,0.00,,,0.00,,2013-02-16 14:52:00,
2013-02-16 09:02:00,7.0,7.0,-100.00,SW,215,0.0,1.0,96,0.00,,,0.00,,2013-02-16 15:02:00,
2013-02-16 09:11:00,8.0,7.0,-100.00,SW,215,0.0,1.0,96,0.00,,,0.00,,2013-02-16 15:11:00,
2013-02-16 09:21:00,8.0,7.0,-100.00,SW,215,0.0,0.0,96,0.00,,,0.00,,2013-02-16 15:21:00,
2013-02-16 09:32:00,9.0,9.0,-100.00,SW,215,0.0,0.0,96,0.00,,,0.00,,2013-02-16 15:32:00,
2013-02-16 09:42:00,9.0,9.0,-100.00,SSW,210,0.0,0.0,96,0.00,,,0.00,,2013-02-16 15:42:00,
2013-02-16 09:51:00,10.0,9.0,-100.00,SSW,210,0.0,0.0,97,0.00,,,0.00,,2013-02-16 15:51:00,
2013-02-16 10:01:00,10.0,9.0,-100.00,SSW,210,0.0,0.0,97,0.00,,,0.00,,2013-02-16 16:01:00,
2013-02-16 10:11:00,10.0,10.0,-100.00,SE,145,0.0,0.0,97,0.00,,,0.00,,2013-02-16 16:11:00,
2013-02-16 10:21:00,12.0,10.0,-100.00,SSE,160,0.0,0.0,97,0.00,,,0.00,,2013-02-16 16:21:00,
2013-02-16 10:32:00,12.0,12.0,-100.00,SSE,160,0.0,0.0,97,0.00,,,0.00,,2013-02-16 16:32:00,
2013-02-16 10:42:00,12.0,12.0,-100.00,South,175,0.0,0.0,97,0.00,,,0.00,,2013-02-16 16:42:00,
2013-02-16 10:51:00,12.0,12.0,-100.00,South,170,9.0,10.0,97,0.00,,,0.00,,2013-02-16 16:51:00,
2013-02-16 11:01:00,13.0,12.0,-100.00,SSE,165,9.0,10.0,97,0.00,,,0.00,,2013-02-16 17:01:00,
2013-02-16 11:11:00,13.0,12.0,-100.00,South,170,8.0,10.0,97,0.00,,,0.00,,2013-02-16 17:11:00,
2013-02-16 11:22:00,14.0,12.0,-100.00,SSE,160,9.0,10.0,97,0.00,,,0.00,,2013-02-16 17:22:00,
2013-02-16 11:32:00,14.0,14.0,-100.00,SSE,155,7.0,10.0,97,0.00,,,0.00,,2013-02-16 17:32:00,
2013-02-16 11:42:00,15.0,14.0,-100.00,SSE,165,9.0,10.0,97,0.00,,,0.00,,2013-02-16 17:42:00,
2013-02-16 11:52:00,15.0,14.0,-100.00,SSE,160,10.0,11.0,97,0.00,,,0.00,,2013-02-16 17:52:00,
2013-02-16 12:11:00,16.0,16.0,-100.00,SSE,160,9.0,12.0,98,0.00,,,0.00,,2013-02-16 18:11:00,
2013-02-16 12:21:00,16.0,16.0,-100.00,SE,145,9.0,11.0,98,0.00,,,0.00,,2013-02-16 18:21:00,
2013-02-16 12:33:00,17.0,16.0,-100.00,SE,145,9.0,10.0,98,0.00,,,0.00,,2013-02-16 18:33:00,
2013-02-16 12:42:00,17.0,16.0,-100.00,SSE,150,8.0,11.0,98,0.00,,,0.00,,2013-02-16 18:42:00,
2013-02-16 12:51:00,18.0,18.0,-100.00,SSE,160,8.0,9.0,98,0.00,,,0.00,,2013-02-16 18:51:00,
2013-02-16 13:02:00,18.0,18.0,-100.00,SSE,165,9.0,10.0,98,0.00,,,0.00,,2013-02-16 19:02:00,
2013-02-16 13:21:00,19.0,19.0,-100.00,SE,135,9.0,12.0,99,0.00,,,0.00,,2013-02-16 19:21:00,
2013-02-16 13:31:00,20.0,19.0,-100.00,SSE,150,10.0,12.0,98,0.00,,,0.00,,2013-02-16 19:31:00,
2013-02-16 13:42:00,21.0,21.0,-100.00,SSE,165,9.0,12.0,98,0.00,,,0.00,,2013-02-16 19:42:00,
2013-02-16 13:52:00,21.0,21.0,-100.00,SSE,150,10.0,12.0,98,0.00,,,0.00,,2013-02-16 19:52:00,
2013-02-16 14:01:00,22.0,21.0,-100.00,SSE,160,9.0,11.0,98,0.00,,,0.00,,2013-02-16 20:01:00,
2013-02-16 14:11:00,22.0,21.0,-100.00,SSE,150,10.0,11.0,98,0.00,,,0.00,,2013-02-16 20:11:00,
2013-02-16 14:21:00,23.0,21.0,-100.00,SE,140,11.0,13.0,95,0.00,,,0.00,,2013-02-16 20:21:00,
2013-02-16 14:32:00,23.0,21.0,-100.00,SE,145,11.0,13.0,94,0.00,,,0.00,,2013-02-16 20:32:00,
2013-02-16 14:42:00,24.0,21.0,-100.00,SE,140,11.0,12.0,93,0.00,,,0.00,,2013-02-16 20:42:00,
2013-02-16 14:52:00,24.0,23.0,-100.00,SSE,150,8.0,12.0,92,0.00,,,0.00,,2013-02-16 20:52:00,
2013-02-16 15:02:00,25.0,23.0,-100.00,SSE,150,10.0,12.0,91,0.00,,,0.00,,2013-02-16 21:02:00,
2013-02-16 15:11:00,25.0,23.0,-100.00,SE,145,9.0,12.0,90,0.00,,,0.00,,2013-02-16 21:11:00,
2013-02-16 15:21:00,25.0,23.0,-100.00,SE,140,10.0,11.0,89,0.00,,,0.00,,2013-02-16 21:21:00,
2013-02-16 15:32:00,25.0,23.0,-100.00,SE,140,11.0,12.0,88,0.00,,,0.00,,2013-02-16 21:32:00,
2013-02-16 15:42:00,25.0,21.0,-100.00,SE,135,10.0,12.0,87,0.00,,,0.00,,2013-02-16 21:42:00,
2013-02-16 15:52:00,25.0,21.0,-100.00,ESE,120,9.0,12.0,87,0.00,,,0.00,,2013-02-16 21:52:00,
2013-02-16 16:01:00,25.0,23.0,-100.00,SE,125,11.0,13.0,87,0.00,,,0.00,,2013-02-16 22:01:00,
2013-02-16 16:11:00,25.0,21.0,-100.00,SE,125,9.0,12.0,87,0.00,,,0.00,,2013-02-16 22:11:00,
2013-02-16 16:21:00,25.0,21.0,-100.00,ESE,120,9.0,12.0,86,0.00,,,0.00,,2013-02-16 22:21:00,
2013-02-16 16:32:00,26.0,21.0,-100.00,ESE,120,7.0,11.0,86,0.00,,,0.00,,2013-02-16 22:32:00,
2013-02-16 16:42:00,25.0,21.0,-100.00,ESE,115,9.0,11.0,85,0.00,,,0.00,,2013-02-16 22:42:00,
2013-02-16 16:51:00,25.0,21.0,-100.00,ESE,105,8.0,10.0,85,0.00,,,0.00,,2013-02-16 22:51:00,
2013-02-16 17:02:00,24.0,21.0,-100.00,East,95,9.0,11.0,85,0.00,,,0.00,,2013-02-16 23:02:00,
2013-02-16 17:11:00,24.0,21.0,-100.00,ESE,105,9.0,11.0,85,0.00,,,0.00,,2013-02-16 23:11:00,
2013-02-16 17:21:00,24.0,19.0,-100.00,East,100,9.0,12.0,85,0.00,,,0.00,,2013-02-16 23:21:00,
2013-02-16 17:31:00,23.0,19.0,-100.00,East,100,9.0,11.0,86,0.00,,,0.00,,2013-02-16 23:31:00,
2013-02-16 17:42:00,23.0,19.0,-100.00,ESE,105,9.0,12.0,86,0.00,,,0.00,,2013-02-16 23:42:00,
2013-02-16 17:52:00,22.0,19.0,-100.00,ESE,105,9.0,11.0,86,0.00,,,0.00,,2013-02-16 23:52:00,
2013-02-16 18:02:00,21.0,18.0,-100.00,East,100,9.0,11.0,87,0.00,,,0.00,,2013-02-17 00:02:00,
2013-02-16 18:12:00,21.0,18.0,-100.00,ESE,105,10.0,12.0,90,0.00,,,0.00,,2013-02-17 00:12:00,
2013-02-16 18:22:00,20.0,19.0,-100.00,ESE,105,10.0,12.0,92,0.00,,,0.00,,2013-02-17 00:22:00,
2013-02-16 18:32:00,20.0,18.0,-100.00,ESE,105,12.0,13.0,93,0.00,,,0.00,,2013-02-17 00:32:00,
2013-02-16 18:42:00,20.0,18.0,-100.00,ESE,105,11.0,13.0,94,0.00,,,0.00,,2013-02-17 00:42:00,
2013-02-16 18:52:00,19.0,18.0,-100.00,ESE,105,10.0,12.0,94,0.00,,,0.00,,2013-02-17 00:52:00,
2013-02-16 19:01:00,19.0,18.0,-100.00,ESE,115,11.0,12.0,95,0.00,,,0.00,,2013-02-17 01:01:00,
2013-02-16 19:11:00,19.0,18.0,-100.00,ESE,110,10.0,12.0,95,0.00,,,0.00,,2013-02-17 01:11:00,
2013-02-16 19:21:00,18.0,18.0,-100.00,ESE,115,11.0,12.0,96,0.00,,,0.00,,2013-02-17 01:21:00,
2013-02-16 19:31:00,18.0,18.0,-100.00,ESE,120,11.0,12.0,96,0.00,,,0.00,,2013-02-17 01:31:00,
2013-02-16 19:41:00,16.0,16.0,-100.00,SE,125,11.0,12.0,96,0.00,,,0.00,,2013-02-17 01:41:00,
2013-02-16 20:11:00,15.0,14.0,-100.00,SE,130,11.0,11.0,98,0.00,,,0.00,,2013-02-17 02:11:00,
2013-02-16 20:21:00,15.0,14.0,-100.00,SE,130,11.0,11.0,98,0.00,,,0.00,,2013-02-17 02:21:00,
2013-02-16 20:31:00,15.0,14.0,-100.00,SE,135,11.0,12.0,98,0.00,,,0.00,,2013-02-17 02:31:00,
2013-02-16 20:52:00,15.0,14.0,-100.00,SE,130,11.0,12.0,98,0.00,,,0.00,,2013-02-17 02:52:00,
2013-02-16 21:02:00,15.0,14.0,-100.00,SE,135,11.0,12.0,98,0.00,,,0.00,,2013-02-17 03:02:00,
2013-02-16 21:11:00,15.0,14.0,-100.00,SE,135,11.0,12.0,98,0.00,,,0.00,,2013-02-17 03:11:00,
2013-02-16 21:21:00,15.0,14.0,-100.00,SE,130,10.0,11.0,98,0.00,,,0.00,,2013-02-17 03:21:00,
2013-02-16 21:42:00,16.0,16.0,-100.00,SE,140,11.0,12.0,99,0.00,,,0.00,,2013-02-17 03:42:00,
2013-02-16 22:21:00,17.0,16.0,-100.00,SE,145,11.0,12.0,99,0.00,,,0.00,,2013-02-17 04:21:00,
2013-02-16 22:31:00,17.0,16.0,-100.00,SE,145,11.0,12.0,99,0.00,,,0.00,,2013-02-17 04:31:00,
2013-02-16 22:41:00,17.0,16.0,-100.00,SE,145,12.0,13.0,99,0.00,,,0.00,,2013-02-17 04:41:00,
2013-02-16 22:51:00,17.0,16.0,-100.00,SE,145,11.0,12.0,99,0.00,,,0.00,,2013-02-17 04:51:00,
2013-02-16 23:12:00,18.0,18.0,-100.00,SSE,150,11.0,13.0,99,0.00,,,0.00,,2013-02-17 05:12:00,
2013-02-16 23:22:00,17.0,16.0,-100.00,SSE,155,10.0,11.0,99,0.00,,,0.00,,2013-02-17 05:22:00,
2013-02-16 23:33:00,16.0,16.0,-100.00,SSE,160,11.0,11.0,99,0.00,,,0.00,,2013-02-17 05:33:00,